sensor_id;sensor_type;location;lat;lon;timestamp;P1;durP1;ratioP1;P2;durP2;ratioP2
18172;SDS011;9211;48.818;9.312;2022-11-09T00:00:46;13.25;;;6.90;;
18172;SDS011;9211;48.818;9.312;2022-11-09T00:03:14;11.30;;;6.53;;
18172;SDS011;9211;48.818;9.312;2022-11-09T00:05:41;15.00;;;7.07;;
18172;SDS011;9211;48.818;9.312;2022-11-09T00:08:09;13.20;;;6.70;;
18172;SDS011;9211;48.818;9.312;2022-11-09T00:10:37;11.50;;;6.60;;
18172;SDS011;9211;48.818;9.312;2022-11-09T00:13:04;11.82;;;6.65;;
18172;SDS011;9211;48.818;9.312;2022-11-09T00:15:31;13.90;;;7.00;;
18172;SDS011;9211;48.818;9.312;2022-11-09T00:17:59;12.73;;;6.53;;
18172;SDS011;9211;48.818;9.312;2022-11-09T00:20:29;14.80;;;7.28;;
18172;SDS011;9211;48.818;9.312;2022-11-09T00:22:56;13.00;;;6.80;;
18172;SDS011;9211;48.818;9.312;2022-11-09T00:25:23;13.63;;;6.82;;
18172;SDS011;9211;48.818;9.312;2022-11-09T00:27:50;12.15;;;6.50;;
18172;SDS011;9211;48.818;9.312;2022-11-09T00:30:18;13.15;;;6.90;;
18172;SDS011;9211;48.818;9.312;2022-11-09T00:32:46;11.40;;;6.72;;
18172;SDS011;9211;48.818;9.312;2022-11-09T00:35:13;12.85;;;6.40;;
18172;SDS011;9211;48.818;9.312;2022-11-09T00:37:42;11.98;;;6.63;;
18172;SDS011;9211;48.818;9.312;2022-11-09T00:40:09;12.98;;;6.93;;
18172;SDS011;9211;48.818;9.312;2022-11-09T00:42:37;11.07;;;6.53;;
18172;SDS011;9211;48.818;9.312;2022-11-09T00:45:04;11.80;;;6.80;;
18172;SDS011;9211;48.818;9.312;2022-11-09T00:47:32;13.25;;;7.60;;
18172;SDS011;9211;48.818;9.312;2022-11-09T00:49:59;14.15;;;7.43;;
18172;SDS011;9211;48.818;9.312;2022-11-09T00:52:26;14.77;;;8.15;;
18172;SDS011;9211;48.818;9.312;2022-11-09T00:54:54;14.80;;;7.90;;
18172;SDS011;9211;48.818;9.312;2022-11-09T00:57:21;14.07;;;6.85;;
18172;SDS011;9211;48.818;9.312;2022-11-09T00:59:48;12.15;;;6.50;;
18172;SDS011;9211;48.818;9.312;2022-11-09T01:02:17;11.95;;;6.90;;
18172;SDS011;9211;48.818;9.312;2022-11-09T01:04:44;12.73;;;6.45;;
18172;SDS011;9211;48.818;9.312;2022-11-09T01:07:11;12.45;;;6.72;;
18172;SDS011;9211;48.818;9.312;2022-11-09T01:09:39;12.55;;;6.75;;
18172;SDS011;9211;48.818;9.312;2022-11-09T01:12:07;11.73;;;6.70;;
18172;SDS011;9211;48.818;9.312;2022-11-09T01:14:35;12.40;;;6.72;;
18172;SDS011;9211;48.818;9.312;2022-11-09T01:17:03;11.25;;;6.57;;
18172;SDS011;9211;48.818;9.312;2022-11-09T01:19:30;12.90;;;6.70;;
18172;SDS011;9211;48.818;9.312;2022-11-09T01:21:57;11.27;;;6.47;;
18172;SDS011;9211;48.818;9.312;2022-11-09T01:24:26;12.50;;;6.28;;
18172;SDS011;9211;48.818;9.312;2022-11-09T01:26:54;10.52;;;6.28;;
18172;SDS011;9211;48.818;9.312;2022-11-09T01:29:22;13.20;;;6.95;;
18172;SDS011;9211;48.818;9.312;2022-11-09T01:31:49;11.98;;;6.57;;
18172;SDS011;9211;48.818;9.312;2022-11-09T01:34:16;12.55;;;6.53;;
18172;SDS011;9211;48.818;9.312;2022-11-09T01:36:43;11.02;;;6.25;;
18172;SDS011;9211;48.818;9.312;2022-11-09T01:39:10;12.77;;;6.05;;
18172;SDS011;9211;48.818;9.312;2022-11-09T01:41:37;10.93;;;5.72;;
18172;SDS011;9211;48.818;9.312;2022-11-09T01:44:06;9.45;;;5.72;;
18172;SDS011;9211;48.818;9.312;2022-11-09T01:46:39;9.40;;;5.60;;
18172;SDS011;9211;48.818;9.312;2022-11-09T01:49:12;11.15;;;5.78;;
18172;SDS011;9211;48.818;9.312;2022-11-09T01:51:47;9.00;;;5.10;;
18172;SDS011;9211;48.818;9.312;2022-11-09T01:54:18;10.87;;;5.60;;
18172;SDS011;9211;48.818;9.312;2022-11-09T01:56:49;12.38;;;5.53;;
18172;SDS011;9211;48.818;9.312;2022-11-09T01:59:19;9.65;;;5.57;;
18172;SDS011;9211;48.818;9.312;2022-11-09T02:01:51;10.27;;;5.40;;
18172;SDS011;9211;48.818;9.312;2022-11-09T02:04:20;10.23;;;5.28;;
18172;SDS011;9211;48.818;9.312;2022-11-09T02:06:50;9.32;;;5.30;;
18172;SDS011;9211;48.818;9.312;2022-11-09T02:09:22;11.40;;;5.50;;
18172;SDS011;9211;48.818;9.312;2022-11-09T02:11:52;8.68;;;5.00;;
18172;SDS011;9211;48.818;9.312;2022-11-09T02:14:19;8.93;;;4.97;;
18172;SDS011;9211;48.818;9.312;2022-11-09T02:16:48;10.13;;;5.47;;
18172;SDS011;9211;48.818;9.312;2022-11-09T02:19:17;8.52;;;5.05;;
18172;SDS011;9211;48.818;9.312;2022-11-09T02:21:45;9.30;;;5.00;;
18172;SDS011;9211;48.818;9.312;2022-11-09T02:24:12;9.60;;;5.30;;
18172;SDS011;9211;48.818;9.312;2022-11-09T02:26:40;8.60;;;4.90;;
18172;SDS011;9211;48.818;9.312;2022-11-09T02:29:11;9.50;;;5.22;;
18172;SDS011;9211;48.818;9.312;2022-11-09T02:31:43;8.48;;;4.80;;
18172;SDS011;9211;48.818;9.312;2022-11-09T02:34:14;8.35;;;4.80;;
18172;SDS011;9211;48.818;9.312;2022-11-09T02:36:44;9.52;;;5.07;;
18172;SDS011;9211;48.818;9.312;2022-11-09T02:39:17;8.65;;;4.63;;
18172;SDS011;9211;48.818;9.312;2022-11-09T02:41:50;8.65;;;4.82;;
18172;SDS011;9211;48.818;9.312;2022-11-09T02:44:21;8.38;;;4.53;;
18172;SDS011;9211;48.818;9.312;2022-11-09T02:46:49;8.73;;;4.45;;
18172;SDS011;9211;48.818;9.312;2022-11-09T02:49:17;8.77;;;4.43;;
18172;SDS011;9211;48.818;9.312;2022-11-09T02:51:45;8.73;;;4.40;;
18172;SDS011;9211;48.818;9.312;2022-11-09T02:54:12;8.70;;;4.18;;
18172;SDS011;9211;48.818;9.312;2022-11-09T02:56:39;8.07;;;4.57;;
18172;SDS011;9211;48.818;9.312;2022-11-09T02:59:07;8.32;;;4.30;;
18172;SDS011;9211;48.818;9.312;2022-11-09T03:01:35;9.13;;;4.73;;
18172;SDS011;9211;48.818;9.312;2022-11-09T03:04:02;8.73;;;4.73;;
18172;SDS011;9211;48.818;9.312;2022-11-09T03:06:30;9.53;;;4.70;;
18172;SDS011;9211;48.818;9.312;2022-11-09T03:09:06;9.27;;;4.40;;
18172;SDS011;9211;48.818;9.312;2022-11-09T03:11:35;8.25;;;4.30;;
18172;SDS011;9211;48.818;9.312;2022-11-09T03:14:04;9.23;;;4.35;;
18172;SDS011;9211;48.818;9.312;2022-11-09T03:16:31;7.20;;;4.30;;
18172;SDS011;9211;48.818;9.312;2022-11-09T03:18:58;7.47;;;4.07;;
18172;SDS011;9211;48.818;9.312;2022-11-09T03:21:27;8.57;;;4.40;;
18172;SDS011;9211;48.818;9.312;2022-11-09T03:23:54;8.90;;;4.53;;
18172;SDS011;9211;48.818;9.312;2022-11-09T03:26:24;9.75;;;4.50;;
18172;SDS011;9211;48.818;9.312;2022-11-09T03:28:51;10.43;;;4.50;;
18172;SDS011;9211;48.818;9.312;2022-11-09T03:31:18;7.95;;;4.30;;
18172;SDS011;9211;48.818;9.312;2022-11-09T03:33:47;8.40;;;4.60;;
18172;SDS011;9211;48.818;9.312;2022-11-09T03:36:14;8.65;;;4.45;;
18172;SDS011;9211;48.818;9.312;2022-11-09T03:38:41;10.70;;;5.05;;
18172;SDS011;9211;48.818;9.312;2022-11-09T03:41:09;10.90;;;5.35;;
18172;SDS011;9211;48.818;9.312;2022-11-09T03:43:38;10.65;;;5.07;;
18172;SDS011;9211;48.818;9.312;2022-11-09T03:46:05;11.55;;;5.30;;
18172;SDS011;9211;48.818;9.312;2022-11-09T03:48:32;11.02;;;5.00;;
18172;SDS011;9211;48.818;9.312;2022-11-09T03:50:58;9.25;;;5.20;;
18172;SDS011;9211;48.818;9.312;2022-11-09T03:53:25;9.43;;;5.20;;
18172;SDS011;9211;48.818;9.312;2022-11-09T03:55:52;9.45;;;5.18;;
18172;SDS011;9211;48.818;9.312;2022-11-09T03:58:22;9.05;;;5.15;;
18172;SDS011;9211;48.818;9.312;2022-11-09T04:00:50;13.65;;;5.35;;
18172;SDS011;9211;48.818;9.312;2022-11-09T04:03:17;10.93;;;5.20;;
18172;SDS011;9211;48.818;9.312;2022-11-09T04:05:44;10.77;;;5.40;;
18172;SDS011;9211;48.818;9.312;2022-11-09T04:08:11;10.55;;;5.18;;
18172;SDS011;9211;48.818;9.312;2022-11-09T04:10:38;9.60;;;5.32;;
18172;SDS011;9211;48.818;9.312;2022-11-09T04:13:04;9.85;;;5.38;;
18172;SDS011;9211;48.818;9.312;2022-11-09T04:15:31;11.70;;;6.03;;
18172;SDS011;9211;48.818;9.312;2022-11-09T04:18:00;12.82;;;5.68;;
18172;SDS011;9211;48.818;9.312;2022-11-09T04:20:29;8.90;;;5.38;;
18172;SDS011;9211;48.818;9.312;2022-11-09T04:22:57;10.57;;;5.40;;
18172;SDS011;9211;48.818;9.312;2022-11-09T04:25:26;9.68;;;5.63;;
18172;SDS011;9211;48.818;9.312;2022-11-09T04:27:54;9.57;;;5.25;;
18172;SDS011;9211;48.818;9.312;2022-11-09T04:30:22;11.07;;;5.60;;
18172;SDS011;9211;48.818;9.312;2022-11-09T04:32:52;10.85;;;5.57;;
18172;SDS011;9211;48.818;9.312;2022-11-09T04:35:20;13.77;;;6.10;;
18172;SDS011;9211;48.818;9.312;2022-11-09T04:37:53;16.58;;;6.85;;
18172;SDS011;9211;48.818;9.312;2022-11-09T04:40:21;12.17;;;6.17;;
18172;SDS011;9211;48.818;9.312;2022-11-09T04:42:48;14.05;;;6.97;;
18172;SDS011;9211;48.818;9.312;2022-11-09T04:45:15;11.10;;;5.82;;
18172;SDS011;9211;48.818;9.312;2022-11-09T04:47:43;13.43;;;6.37;;
18172;SDS011;9211;48.818;9.312;2022-11-09T04:50:10;14.07;;;6.37;;
18172;SDS011;9211;48.818;9.312;2022-11-09T04:52:39;13.55;;;6.15;;
18172;SDS011;9211;48.818;9.312;2022-11-09T04:55:06;15.48;;;6.60;;
18172;SDS011;9211;48.818;9.312;2022-11-09T04:57:34;13.88;;;6.20;;
18172;SDS011;9211;48.818;9.312;2022-11-09T05:00:02;13.73;;;6.20;;
18172;SDS011;9211;48.818;9.312;2022-11-09T05:02:29;13.57;;;5.55;;
18172;SDS011;9211;48.818;9.312;2022-11-09T05:04:57;11.48;;;5.97;;
18172;SDS011;9211;48.818;9.312;2022-11-09T05:07:24;12.48;;;5.65;;
18172;SDS011;9211;48.818;9.312;2022-11-09T05:09:52;12.80;;;5.70;;
18172;SDS011;9211;48.818;9.312;2022-11-09T05:12:19;12.63;;;5.90;;
18172;SDS011;9211;48.818;9.312;2022-11-09T05:14:46;10.07;;;5.30;;
18172;SDS011;9211;48.818;9.312;2022-11-09T05:17:13;10.43;;;5.18;;
18172;SDS011;9211;48.818;9.312;2022-11-09T05:19:40;9.90;;;5.70;;
18172;SDS011;9211;48.818;9.312;2022-11-09T05:22:07;11.50;;;5.63;;
18172;SDS011;9211;48.818;9.312;2022-11-09T05:24:53;14.27;;;6.07;;
18172;SDS011;9211;48.818;9.312;2022-11-09T05:27:20;14.55;;;6.07;;
18172;SDS011;9211;48.818;9.312;2022-11-09T05:29:47;11.10;;;5.85;;
18172;SDS011;9211;48.818;9.312;2022-11-09T05:32:14;13.57;;;6.20;;
18172;SDS011;9211;48.818;9.312;2022-11-09T05:34:40;13.80;;;6.68;;
18172;SDS011;9211;48.818;9.312;2022-11-09T05:37:07;12.23;;;6.13;;
18172;SDS011;9211;48.818;9.312;2022-11-09T05:39:34;11.15;;;5.82;;
18172;SDS011;9211;48.818;9.312;2022-11-09T05:42:03;10.52;;;5.88;;
18172;SDS011;9211;48.818;9.312;2022-11-09T05:44:30;13.38;;;6.60;;
18172;SDS011;9211;48.818;9.312;2022-11-09T05:46:57;10.43;;;5.95;;
18172;SDS011;9211;48.818;9.312;2022-11-09T05:49:24;13.38;;;5.60;;
18172;SDS011;9211;48.818;9.312;2022-11-09T05:51:51;9.02;;;4.90;;
18172;SDS011;9211;48.818;9.312;2022-11-09T05:54:18;8.93;;;4.60;;
18172;SDS011;9211;48.818;9.312;2022-11-09T05:56:45;7.80;;;4.30;;
18172;SDS011;9211;48.818;9.312;2022-11-09T05:59:13;8.73;;;4.40;;
18172;SDS011;9211;48.818;9.312;2022-11-09T06:01:40;10.82;;;4.55;;
18172;SDS011;9211;48.818;9.312;2022-11-09T06:04:07;7.82;;;4.60;;
18172;SDS011;9211;48.818;9.312;2022-11-09T06:06:34;7.15;;;4.10;;
18172;SDS011;9211;48.818;9.312;2022-11-09T06:09:01;10.30;;;4.50;;
18172;SDS011;9211;48.818;9.312;2022-11-09T06:11:28;8.18;;;3.97;;
18172;SDS011;9211;48.818;9.312;2022-11-09T06:13:55;8.65;;;4.53;;
18172;SDS011;9211;48.818;9.312;2022-11-09T06:16:23;7.68;;;4.60;;
18172;SDS011;9211;48.818;9.312;2022-11-09T06:18:50;8.98;;;4.78;;
18172;SDS011;9211;48.818;9.312;2022-11-09T06:21:17;8.65;;;5.00;;
18172;SDS011;9211;48.818;9.312;2022-11-09T06:23:44;9.80;;;5.10;;
18172;SDS011;9211;48.818;9.312;2022-11-09T06:26:11;11.27;;;5.30;;
18172;SDS011;9211;48.818;9.312;2022-11-09T06:28:39;9.95;;;5.22;;
18172;SDS011;9211;48.818;9.312;2022-11-09T06:31:08;8.80;;;5.28;;
18172;SDS011;9211;48.818;9.312;2022-11-09T06:33:38;10.85;;;4.95;;
18172;SDS011;9211;48.818;9.312;2022-11-09T06:36:06;13.50;;;5.53;;
18172;SDS011;9211;48.818;9.312;2022-11-09T06:38:33;11.00;;;5.30;;
18172;SDS011;9211;48.818;9.312;2022-11-09T06:41:00;10.20;;;5.40;;
18172;SDS011;9211;48.818;9.312;2022-11-09T06:43:27;11.70;;;5.53;;
18172;SDS011;9211;48.818;9.312;2022-11-09T06:45:55;13.38;;;5.63;;
18172;SDS011;9211;48.818;9.312;2022-11-09T06:48:22;10.63;;;5.47;;
18172;SDS011;9211;48.818;9.312;2022-11-09T06:50:50;11.13;;;5.80;;
18172;SDS011;9211;48.818;9.312;2022-11-09T06:53:17;8.82;;;5.40;;
18172;SDS011;9211;48.818;9.312;2022-11-09T06:55:44;11.38;;;5.40;;
18172;SDS011;9211;48.818;9.312;2022-11-09T06:58:12;11.63;;;5.80;;
18172;SDS011;9211;48.818;9.312;2022-11-09T07:00:41;10.68;;;5.43;;
18172;SDS011;9211;48.818;9.312;2022-11-09T07:03:09;11.00;;;5.45;;
18172;SDS011;9211;48.818;9.312;2022-11-09T07:05:39;12.10;;;5.60;;
18172;SDS011;9211;48.818;9.312;2022-11-09T07:08:07;10.65;;;5.55;;
18172;SDS011;9211;48.818;9.312;2022-11-09T07:10:35;9.40;;;5.30;;
18172;SDS011;9211;48.818;9.312;2022-11-09T07:13:02;12.10;;;5.40;;
18172;SDS011;9211;48.818;9.312;2022-11-09T07:15:29;9.70;;;5.30;;
18172;SDS011;9211;48.818;9.312;2022-11-09T07:17:56;10.68;;;5.65;;
18172;SDS011;9211;48.818;9.312;2022-11-09T07:20:24;8.95;;;5.10;;
18172;SDS011;9211;48.818;9.312;2022-11-09T07:22:51;9.30;;;5.35;;
18172;SDS011;9211;48.818;9.312;2022-11-09T07:25:19;11.38;;;5.75;;
18172;SDS011;9211;48.818;9.312;2022-11-09T07:27:46;11.70;;;5.88;;
18172;SDS011;9211;48.818;9.312;2022-11-09T07:30:14;10.23;;;6.05;;
18172;SDS011;9211;48.818;9.312;2022-11-09T07:32:41;10.80;;;5.57;;
18172;SDS011;9211;48.818;9.312;2022-11-09T07:35:08;12.93;;;7.57;;
18172;SDS011;9211;48.818;9.312;2022-11-09T07:37:35;9.88;;;6.03;;
18172;SDS011;9211;48.818;9.312;2022-11-09T07:40:03;15.57;;;11.02;;
18172;SDS011;9211;48.818;9.312;2022-11-09T07:42:32;11.20;;;8.03;;
18172;SDS011;9211;48.818;9.312;2022-11-09T07:44:59;11.80;;;6.85;;
18172;SDS011;9211;48.818;9.312;2022-11-09T07:47:26;10.57;;;6.57;;
18172;SDS011;9211;48.818;9.312;2022-11-09T07:49:53;10.30;;;6.03;;
18172;SDS011;9211;48.818;9.312;2022-11-09T07:52:20;9.73;;;6.00;;
18172;SDS011;9211;48.818;9.312;2022-11-09T07:54:46;13.50;;;6.30;;
18172;SDS011;9211;48.818;9.312;2022-11-09T07:57:13;10.63;;;6.20;;
18172;SDS011;9211;48.818;9.312;2022-11-09T07:59:42;11.00;;;6.30;;
18172;SDS011;9211;48.818;9.312;2022-11-09T08:02:09;10.85;;;6.10;;
18172;SDS011;9211;48.818;9.312;2022-11-09T08:04:36;10.23;;;5.87;;
18172;SDS011;9211;48.818;9.312;2022-11-09T08:07:03;9.63;;;6.03;;
18172;SDS011;9211;48.818;9.312;2022-11-09T08:09:29;9.20;;;5.60;;
18172;SDS011;9211;48.818;9.312;2022-11-09T08:11:56;12.53;;;5.77;;
18172;SDS011;9211;48.818;9.312;2022-11-09T08:14:23;10.50;;;5.60;;
18172;SDS011;9211;48.818;9.312;2022-11-09T08:16:52;13.23;;;6.00;;
18172;SDS011;9211;48.818;9.312;2022-11-09T08:19:19;8.75;;;5.93;;
18172;SDS011;9211;48.818;9.312;2022-11-09T08:21:46;12.98;;;6.10;;
18172;SDS011;9211;48.818;9.312;2022-11-09T08:24:13;12.65;;;6.22;;
18172;SDS011;9211;48.818;9.312;2022-11-09T08:26:40;12.77;;;6.27;;
18172;SDS011;9211;48.818;9.312;2022-11-09T08:29:07;11.25;;;6.40;;
18172;SDS011;9211;48.818;9.312;2022-11-09T08:31:34;11.38;;;5.95;;
18172;SDS011;9211;48.818;9.312;2022-11-09T08:34:02;10.43;;;5.82;;
18172;SDS011;9211;48.818;9.312;2022-11-09T08:36:29;11.68;;;6.20;;
18172;SDS011;9211;48.818;9.312;2022-11-09T08:38:57;13.17;;;5.80;;
18172;SDS011;9211;48.818;9.312;2022-11-09T08:41:24;10.57;;;5.25;;
18172;SDS011;9211;48.818;9.312;2022-11-09T08:43:51;9.20;;;5.00;;
18172;SDS011;9211;48.818;9.312;2022-11-09T08:46:18;9.65;;;5.22;;
18172;SDS011;9211;48.818;9.312;2022-11-09T08:48:45;9.05;;;4.63;;
18172;SDS011;9211;48.818;9.312;2022-11-09T08:51:14;7.63;;;4.57;;
18172;SDS011;9211;48.818;9.312;2022-11-09T08:53:40;9.00;;;4.32;;
18172;SDS011;9211;48.818;9.312;2022-11-09T08:56:07;8.77;;;4.70;;
18172;SDS011;9211;48.818;9.312;2022-11-09T08:58:36;8.87;;;4.83;;
18172;SDS011;9211;48.818;9.312;2022-11-09T09:01:05;9.55;;;4.82;;
18172;SDS011;9211;48.818;9.312;2022-11-09T09:03:32;10.38;;;4.97;;
18172;SDS011;9211;48.818;9.312;2022-11-09T09:06:01;9.95;;;5.25;;
18172;SDS011;9211;48.818;9.312;2022-11-09T09:08:30;11.95;;;4.40;;
18172;SDS011;9211;48.818;9.312;2022-11-09T09:11:00;7.90;;;3.60;;
18172;SDS011;9211;48.818;9.312;2022-11-09T09:13:27;6.47;;;2.40;;
18172;SDS011;9211;48.818;9.312;2022-11-09T09:15:55;2.53;;;1.90;;
18172;SDS011;9211;48.818;9.312;2022-11-09T09:18:21;4.17;;;2.03;;
18172;SDS011;9211;48.818;9.312;2022-11-09T09:20:49;4.95;;;2.10;;
18172;SDS011;9211;48.818;9.312;2022-11-09T09:23:15;4.80;;;2.10;;
18172;SDS011;9211;48.818;9.312;2022-11-09T09:25:44;3.38;;;1.90;;
18172;SDS011;9211;48.818;9.312;2022-11-09T09:28:11;4.45;;;2.15;;
18172;SDS011;9211;48.818;9.312;2022-11-09T09:30:38;3.67;;;1.88;;
18172;SDS011;9211;48.818;9.312;2022-11-09T09:33:05;3.22;;;1.70;;
18172;SDS011;9211;48.818;9.312;2022-11-09T09:35:32;3.55;;;1.67;;
18172;SDS011;9211;48.818;9.312;2022-11-09T09:37:59;2.20;;;1.45;;
18172;SDS011;9211;48.818;9.312;2022-11-09T09:40:28;2.22;;;1.50;;
18172;SDS011;9211;48.818;9.312;2022-11-09T09:43:00;3.20;;;1.50;;
18172;SDS011;9211;48.818;9.312;2022-11-09T09:45:27;3.05;;;1.90;;
18172;SDS011;9211;48.818;9.312;2022-11-09T09:47:58;3.97;;;1.70;;
18172;SDS011;9211;48.818;9.312;2022-11-09T09:50:31;3.40;;;1.80;;
18172;SDS011;9211;48.818;9.312;2022-11-09T09:53:03;3.90;;;1.70;;
18172;SDS011;9211;48.818;9.312;2022-11-09T09:55:39;2.80;;;1.90;;
18172;SDS011;9211;48.818;9.312;2022-11-09T09:58:11;4.57;;;2.10;;
18172;SDS011;9211;48.818;9.312;2022-11-09T10:00:42;5.00;;;2.28;;
18172;SDS011;9211;48.818;9.312;2022-11-09T10:03:13;4.43;;;2.42;;
18172;SDS011;9211;48.818;9.312;2022-11-09T10:05:45;4.20;;;2.30;;
18172;SDS011;9211;48.818;9.312;2022-11-09T10:08:24;4.00;;;2.30;;
18172;SDS011;9211;48.818;9.312;2022-11-09T10:11:02;5.20;;;2.55;;
18172;SDS011;9211;48.818;9.312;2022-11-09T10:13:41;4.38;;;2.40;;
18172;SDS011;9211;48.818;9.312;2022-11-09T10:16:19;6.65;;;2.70;;
18172;SDS011;9211;48.818;9.312;2022-11-09T10:18:58;4.43;;;2.33;;
18172;SDS011;9211;48.818;9.312;2022-11-09T10:21:43;4.83;;;2.30;;
18172;SDS011;9211;48.818;9.312;2022-11-09T10:24:20;4.22;;;2.20;;
18172;SDS011;9211;48.818;9.312;2022-11-09T10:26:56;3.92;;;2.40;;
18172;SDS011;9211;48.818;9.312;2022-11-09T10:29:26;3.23;;;1.67;;
18172;SDS011;9211;48.818;9.312;2022-11-09T10:32:00;3.15;;;1.38;;
18172;SDS011;9211;48.818;9.312;2022-11-09T10:34:36;2.40;;;1.37;;
18172;SDS011;9211;48.818;9.312;2022-11-09T10:37:08;2.67;;;1.45;;
18172;SDS011;9211;48.818;9.312;2022-11-09T10:39:40;2.08;;;1.20;;
18172;SDS011;9211;48.818;9.312;2022-11-09T10:42:30;2.57;;;1.30;;
18172;SDS011;9211;48.818;9.312;2022-11-09T10:45:28;3.17;;;1.20;;
18172;SDS011;9211;48.818;9.312;2022-11-09T10:48:24;2.80;;;1.40;;
18172;SDS011;9211;48.818;9.312;2022-11-09T10:54:22;2.65;;;1.80;;
18172;SDS011;9211;48.818;9.312;2022-11-09T10:57:11;2.72;;;1.70;;
18172;SDS011;9211;48.818;9.312;2022-11-09T10:59:59;1.80;;;1.40;;
18172;SDS011;9211;48.818;9.312;2022-11-09T11:02:48;2.28;;;1.30;;
18172;SDS011;9211;48.818;9.312;2022-11-09T11:05:34;1.60;;;1.20;;
18172;SDS011;9211;48.818;9.312;2022-11-09T11:08:26;2.37;;;1.30;;
18172;SDS011;9211;48.818;9.312;2022-11-09T11:11:20;1.90;;;1.33;;
18172;SDS011;9211;48.818;9.312;2022-11-09T11:14:12;2.33;;;1.57;;
18172;SDS011;9211;48.818;9.312;2022-11-09T11:16:59;1.92;;;1.30;;
18172;SDS011;9211;48.818;9.312;2022-11-09T11:22:34;2.40;;;1.20;;
18172;SDS011;9211;48.818;9.312;2022-11-09T11:25:21;2.70;;;1.33;;
18172;SDS011;9211;48.818;9.312;2022-11-09T11:28:11;2.75;;;1.23;;
18172;SDS011;9211;48.818;9.312;2022-11-09T11:31:01;3.05;;;1.40;;
18172;SDS011;9211;48.818;9.312;2022-11-09T11:33:47;2.43;;;1.30;;
18172;SDS011;9211;48.818;9.312;2022-11-09T11:36:35;2.57;;;1.47;;
18172;SDS011;9211;48.818;9.312;2022-11-09T11:39:39;3.78;;;1.60;;
18172;SDS011;9211;48.818;9.312;2022-11-09T11:42:56;2.63;;;1.40;;
18172;SDS011;9211;48.818;9.312;2022-11-09T11:45:52;2.70;;;1.50;;
18172;SDS011;9211;48.818;9.312;2022-11-09T11:51:59;4.93;;;2.97;;
18172;SDS011;9211;48.818;9.312;2022-11-09T11:54:58;3.10;;;1.70;;
18172;SDS011;9211;48.818;9.312;2022-11-09T11:57:57;2.63;;;1.63;;
18172;SDS011;9211;48.818;9.312;2022-11-09T12:00:56;2.92;;;1.42;;
18172;SDS011;9211;48.818;9.312;2022-11-09T12:03:52;3.28;;;1.45;;
18172;SDS011;9211;48.818;9.312;2022-11-09T12:06:52;3.42;;;1.65;;
18172;SDS011;9211;48.818;9.312;2022-11-09T12:09:53;2.80;;;1.50;;
18172;SDS011;9211;48.818;9.312;2022-11-09T12:12:57;2.85;;;1.30;;
18172;SDS011;9211;48.818;9.312;2022-11-09T12:15:57;2.60;;;1.40;;
18172;SDS011;9211;48.818;9.312;2022-11-09T12:18:52;2.28;;;1.40;;
18172;SDS011;9211;48.818;9.312;2022-11-09T12:21:47;4.43;;;1.60;;
18172;SDS011;9211;48.818;9.312;2022-11-09T12:24:41;2.40;;;1.50;;
18172;SDS011;9211;48.818;9.312;2022-11-09T12:27:38;3.05;;;1.55;;
18172;SDS011;9211;48.818;9.312;2022-11-09T12:30:47;4.10;;;1.73;;
18172;SDS011;9211;48.818;9.312;2022-11-09T12:33:45;3.45;;;1.80;;
18172;SDS011;9211;48.818;9.312;2022-11-09T12:36:37;2.97;;;1.67;;
18172;SDS011;9211;48.818;9.312;2022-11-09T12:39:26;2.60;;;1.52;;
18172;SDS011;9211;48.818;9.312;2022-11-09T12:42:17;2.50;;;1.60;;
18172;SDS011;9211;48.818;9.312;2022-11-09T12:45:13;2.35;;;1.40;;
18172;SDS011;9211;48.818;9.312;2022-11-09T12:48:05;2.17;;;1.57;;
18172;SDS011;9211;48.818;9.312;2022-11-09T12:50:58;3.08;;;1.70;;
18172;SDS011;9211;48.818;9.312;2022-11-09T12:53:46;3.40;;;2.08;;
18172;SDS011;9211;48.818;9.312;2022-11-09T12:56:33;3.03;;;1.70;;
18172;SDS011;9211;48.818;9.312;2022-11-09T12:59:43;2.92;;;1.80;;
18172;SDS011;9211;48.818;9.312;2022-11-09T13:02:34;4.40;;;2.15;;
18172;SDS011;9211;48.818;9.312;2022-11-09T13:05:28;4.07;;;2.00;;
18172;SDS011;9211;48.818;9.312;2022-11-09T13:08:16;3.50;;;2.00;;
18172;SDS011;9211;48.818;9.312;2022-11-09T13:20:47;4.00;;;2.30;;
18172;SDS011;9211;48.818;9.312;2022-11-09T13:23:34;4.65;;;2.17;;
18172;SDS011;9211;48.818;9.312;2022-11-09T13:26:22;3.65;;;2.00;;
18172;SDS011;9211;48.818;9.312;2022-11-09T13:29:29;3.75;;;2.17;;
18172;SDS011;9211;48.818;9.312;2022-11-09T13:32:31;3.05;;;2.03;;
18172;SDS011;9211;48.818;9.312;2022-11-09T13:42:23;3.38;;;2.00;;
18172;SDS011;9211;48.818;9.312;2022-11-09T13:45:15;3.65;;;2.08;;
18172;SDS011;9211;48.818;9.312;2022-11-09T13:48:20;3.35;;;2.03;;
18172;SDS011;9211;48.818;9.312;2022-11-09T13:51:19;3.63;;;2.00;;
18172;SDS011;9211;48.818;9.312;2022-11-09T13:54:23;4.20;;;2.15;;
18172;SDS011;9211;48.818;9.312;2022-11-09T13:57:14;3.47;;;2.00;;
18172;SDS011;9211;48.818;9.312;2022-11-09T14:00:01;4.03;;;1.85;;
18172;SDS011;9211;48.818;9.312;2022-11-09T14:02:51;2.67;;;1.70;;
18172;SDS011;9211;48.818;9.312;2022-11-09T14:05:37;2.88;;;1.65;;
18172;SDS011;9211;48.818;9.312;2022-11-09T14:08:24;3.05;;;1.80;;
18172;SDS011;9211;48.818;9.312;2022-11-09T14:11:17;2.67;;;1.52;;
18172;SDS011;9211;48.818;9.312;2022-11-09T14:14:19;4.43;;;2.00;;
18172;SDS011;9211;48.818;9.312;2022-11-09T14:17:29;4.47;;;2.05;;
18172;SDS011;9211;48.818;9.312;2022-11-09T14:20:30;3.58;;;1.80;;
18172;SDS011;9211;48.818;9.312;2022-11-09T14:23:23;3.63;;;2.00;;
18172;SDS011;9211;48.818;9.312;2022-11-09T14:26:15;5.50;;;1.90;;
18172;SDS011;9211;48.818;9.312;2022-11-09T14:29:09;3.42;;;1.73;;
18172;SDS011;9211;48.818;9.312;2022-11-09T14:32:17;3.92;;;1.80;;
18172;SDS011;9211;48.818;9.312;2022-11-09T14:35:09;3.63;;;1.80;;
18172;SDS011;9211;48.818;9.312;2022-11-09T14:37:55;2.27;;;1.60;;
18172;SDS011;9211;48.818;9.312;2022-11-09T14:40:43;4.35;;;1.85;;
18172;SDS011;9211;48.818;9.312;2022-11-09T14:43:34;2.58;;;1.70;;
18172;SDS011;9211;48.818;9.312;2022-11-09T14:46:23;3.43;;;1.70;;
18172;SDS011;9211;48.818;9.312;2022-11-09T14:49:12;3.00;;;1.83;;
18172;SDS011;9211;48.818;9.312;2022-11-09T14:51:58;3.33;;;1.70;;
18172;SDS011;9211;48.818;9.312;2022-11-09T14:54:44;3.13;;;1.92;;
18172;SDS011;9211;48.818;9.312;2022-11-09T14:57:30;3.97;;;2.27;;
18172;SDS011;9211;48.818;9.312;2022-11-09T15:00:26;4.15;;;2.30;;
18172;SDS011;9211;48.818;9.312;2022-11-09T15:03:20;3.95;;;2.15;;
18172;SDS011;9211;48.818;9.312;2022-11-09T15:06:11;4.80;;;2.25;;
18172;SDS011;9211;48.818;9.312;2022-11-09T15:09:00;3.33;;;2.00;;
18172;SDS011;9211;48.818;9.312;2022-11-09T15:11:48;4.57;;;2.45;;
18172;SDS011;9211;48.818;9.312;2022-11-09T15:14:35;4.40;;;2.13;;
18172;SDS011;9211;48.818;9.312;2022-11-09T15:17:22;3.63;;;2.10;;
18172;SDS011;9211;48.818;9.312;2022-11-09T15:20:23;4.38;;;2.20;;
18172;SDS011;9211;48.818;9.312;2022-11-09T15:23:21;4.68;;;2.58;;
18172;SDS011;9211;48.818;9.312;2022-11-09T15:26:26;5.13;;;2.20;;
18172;SDS011;9211;48.818;9.312;2022-11-09T15:29:29;4.55;;;2.10;;
18172;SDS011;9211;48.818;9.312;2022-11-09T15:32:20;6.03;;;2.22;;
18172;SDS011;9211;48.818;9.312;2022-11-09T15:35:12;4.68;;;2.70;;
18172;SDS011;9211;48.818;9.312;2022-11-09T15:38:01;4.93;;;2.50;;
18172;SDS011;9211;48.818;9.312;2022-11-09T15:40:48;5.10;;;2.50;;
18172;SDS011;9211;48.818;9.312;2022-11-09T15:43:34;4.57;;;2.40;;
18172;SDS011;9211;48.818;9.312;2022-11-09T15:46:20;6.47;;;2.30;;
18172;SDS011;9211;48.818;9.312;2022-11-09T15:49:12;5.82;;;2.00;;
18172;SDS011;9211;48.818;9.312;2022-11-09T15:52:00;6.00;;;2.00;;
18172;SDS011;9211;48.818;9.312;2022-11-09T15:54:46;4.10;;;2.42;;
18172;SDS011;9211;48.818;9.312;2022-11-09T15:57:32;6.05;;;3.05;;
18172;SDS011;9211;48.818;9.312;2022-11-09T16:00:19;7.45;;;3.30;;
18172;SDS011;9211;48.818;9.312;2022-11-09T16:03:05;5.57;;;3.60;;
18172;SDS011;9211;48.818;9.312;2022-11-09T16:05:52;7.72;;;4.38;;
18172;SDS011;9211;48.818;9.312;2022-11-09T16:08:37;11.18;;;5.30;;
18172;SDS011;9211;48.818;9.312;2022-11-09T16:11:23;10.55;;;6.32;;